Flight Track Log - Related Links

Times and Time Zones

All times are in EDT time to prevent confusion due to time zone crossing. See the SWA1366 flight status page for this flight to view local times or setup timezone preferences in your user account.

Time Position Orientation Groundspeed Altitude Reporting Facility
EDT Latitude Longitude Course Direction KTS MPH feet Rate Location/Type
Tue 09:28:53 PM 39.8881 -104.5811 72° East 179 206 7,200  Level Denver Center
Tue 09:29:54 PM 39.9081 -104.4986 72° East 235 270 9,300 1,659 Climbing Denver Center
Tue 09:30:56 PM 39.9294 -104.3864 76° East 310 357 10,600 1,355 Climbing Denver Center
Tue 09:31:58 PM 39.9514 -104.2617 77° East 350 403 12,100 732 Climbing Denver Center
Tue 09:32:59 PM 39.9717 -104.1367 78° East 352 405 12,100 878 Level Denver Center
Tue 09:34:00 PM 40.0958 -103.7150 72° East  Level Estimated
Tue 09:34:01 PM 39.9928 -103.9989 79° East 357 411 13,900  Level Denver Center
Tue 09:35:03 PM 40.0133 -103.8667 78° East 373 429 16,300 2,371 Climbing Denver Center
Tue 09:36:05 PM 40.0389 -103.7156 77° East 392 451 18,800 2,390 Climbing Denver Center
Tue 09:37:06 PM 40.0628 -103.5711 78° East 404 465 21,200 2,244 Climbing Denver Center
Tue 09:38:08 PM 40.0850 -103.4183 79° East 423 487 23,400 1,935 Climbing Denver Center
Tue 09:39:10 PM 40.1083 -103.2633 79° East 434 499 25,200 1,597 Climbing Denver Center
Tue 09:40:12 PM 40.1342 -103.1011 78° East 454 522 26,700 1,887 Climbing Denver Center
Tue 09:41:14 PM 40.1583 -102.9378 79° East 457 526 29,100 1,756 Climbing Denver Center
Tue 09:42:15 PM 40.1831 -102.7728 79° East 463 533 30,300 1,366 Climbing Denver Center
Tue 09:43:17 PM 40.2133 -102.5847 78° East 474 545 31,900 1,500 Climbing Denver Center
Tue 09:44:19 PM 40.2403 -102.3944 79° East 478 550 33,400 1,220 Climbing Denver Center
Tue 09:45:20 PM 40.2606 -102.2572 79° East 481 554 34,400 1,122 Climbing Denver Center
Tue 09:46:22 PM 40.2883 -102.0642 79° East 485 558 35,700 1,161 Climbing Denver Center
Tue 09:47:24 PM 40.3150 -101.8700 80° East 486 559 36,800 629 Climbing Denver Center
Tue 09:48:26 PM 40.3400 -101.7031 79° East 488 562 37,000 97 Climbing Denver Center
Tue 09:49:28 PM 40.3675 -101.5042 80° East 498 573 37,000  Level Denver Center
Tue 09:50:29 PM 40.3903 -101.3306 80° East 506 582 37,000  Level Denver Center
Tue 09:51:31 PM 40.4181 -101.1294 80° East 504 580 37,000  Level Denver Center
Tue 09:52:33 PM 40.4411 -100.9575 80° East 503 579 37,000  Level Denver Center
Tue 09:53:35 PM 40.4689 -100.7567 80° East 505 581 37,000  Level Denver Center
Tue 09:54:37 PM 40.4906 -100.5844 81° East 506 582 37,000  Level Denver Center
Tue 09:55:39 PM 40.5169 -100.3856 80° East 500 575 37,000  Level Denver Center
Tue 09:56:40 PM 40.5383 -100.2175 80° East 493 567 37,000  Level Denver Center
Tue 09:57:42 PM 40.5633 -100.0236 80° East 486 559 37,000  Level Denver Center
Tue 09:58:44 PM 40.5836 -99.8556 81° East 487 560 37,000  Level Denver Center
Tue 09:59:46 PM 40.6044 -99.6850 81° East 486 559 37,000  Level Denver Center
Tue 10:00:48 PM 40.6258 -99.5111 81° East 484 557 37,000 484 Level Denver Center
Tue 10:01:50 PM 40.6508 -99.2986 81° East 491 565 38,000 484 Climbing Denver Center
Tue 10:02:52 PM 40.6717 -99.1233 81° East 488 562 38,000  Level Denver Center
Tue 10:03:53 PM 40.6914 -98.9483 81° East 487 560 38,000  Level Denver Center
Tue 10:04:55 PM 40.7106 -98.7742 82° East 486 559 38,000  Level Denver Center
Tue 10:05:57 PM 40.7308 -98.6003 81° East 485 558 38,000  Level Denver Center
Tue 10:06:59 PM 40.7650 -98.3956 78° East 481 554 38,000  Level Denver Center
Tue 10:08:20 PM 40.7969 -98.1903 78° East 480 552 38,000  Level Minneapolis Center
Tue 10:09:21 PM 40.8239 -98.0197 78° East 479 551 38,000  Level Minneapolis Center
Tue 10:10:23 PM 40.8564 -97.8144 78° East 478 550 38,000  Level Minneapolis Center
Tue 10:11:24 PM 40.8817 -97.6431 79° East 478 550 38,000  Level Minneapolis Center
Tue 10:12:26 PM 40.9086 -97.4717 78° East 477 549 38,000  Level Minneapolis Center
Tue 10:13:28 PM 40.9322 -97.3194 78° East 476 548 38,000  Level Minneapolis Center
Tue 10:14:29 PM 40.9628 -97.1136 79° East 476 548 38,000  Level Minneapolis Center
Tue 10:15:31 PM 40.9878 -96.9403 79° East 480 552 38,000  Level Minneapolis Center
Tue 10:16:32 PM 41.0133 -96.7697 79° East 475 547 38,000  Level Minneapolis Center
Tue 10:17:34 PM 41.0383 -96.5992 79° East 475 547 38,000  Level Minneapolis Center
Tue 10:18:35 PM 41.0633 -96.4278 79° East 475 547 38,000  Level Minneapolis Center
Tue 10:19:37 PM 41.0872 -96.2583 79° East 474 545 38,000  Level Minneapolis Center
Tue 10:20:39 PM 41.1147 -96.0556 80° East 473 544 38,000  Level Minneapolis Center
Tue 10:21:40 PM 41.1386 -95.8914 79° East 481 554 38,000  Level Minneapolis Center
Tue 10:22:42 PM 41.1633 -95.7211 79° East 473 544 38,000  Level Minneapolis Center
Tue 10:23:43 PM 41.1844 -95.5444 81° East 476 548 38,000  Level Minneapolis Center
Tue 10:24:45 PM 41.2075 -95.3731 80° East 475 547 38,000  Level Minneapolis Center
Tue 10:25:47 PM 41.2311 -95.1989 80° East 481 554 38,000  Level Minneapolis Center
Tue 10:26:48 PM 41.2583 -94.9911 80° East 477 549 38,000  Level Minneapolis Center
Tue 10:27:50 PM 41.2803 -94.8183 80° East 477 549 38,000  Level Minneapolis Center
Tue 10:28:51 PM 41.3014 -94.6436 81° East 478 550 38,000  Level Minneapolis Center
Tue 10:29:53 PM 41.3242 -94.4675 80° East 482 555 38,000  Level Minneapolis Center
Tue 10:30:55 PM 41.3456 -94.2914 81° East 484 557 38,000 341 Level Minneapolis Center
Tue 10:31:56 PM 41.3686 -94.0956 81° East 486 559 38,700 488 Climbing Minneapolis Center
Tue 10:32:58 PM 41.3911 -93.9181 80° East 489 563 39,000 146 Climbing Minneapolis Center
Tue 10:33:59 PM 41.4125 -93.7417 81° East 487 560 39,000  Level Minneapolis Center
Tue 10:35:01 PM 41.4328 -93.5664 81° East 484 557 39,000  Level Minneapolis Center
Tue 10:36:02 PM 41.4542 -93.3897 81° East 485 558 39,000  Level Minneapolis Center
Tue 10:37:04 PM 41.4739 -93.2164 81° East 480 552 39,000  Level Minneapolis Center
Tue 10:38:05 PM 41.4939 -93.0447 81° East 474 545 39,000  Level Minneapolis Center
Tue 10:39:07 PM 41.5158 -92.8353 82° East 476 548 39,000  Level Minneapolis Center
Tue 10:40:08 PM 41.5356 -92.6619 81° East 476 548 39,000  Level Minneapolis Center
Tue 10:40:56 PM 41.5492 -92.5389 82° East 474 545 39,000  Level Chicago Center
Tue 10:41:57 PM 41.5681 -92.3625 82° East 482 555 39,000  Level Chicago Center
Tue 10:42:59 PM 41.5853 -92.1894 82° East 477 549 39,000  Level Chicago Center
Tue 10:44:00 PM 41.6075 -91.9778 82° East 484 557 39,000  Level Chicago Center
Tue 10:45:02 PM 41.6256 -91.8011 82° East 488 562 39,000  Level Chicago Center
Tue 10:46:03 PM 41.6431 -91.6236 82° East 488 562 39,000  Level Chicago Center
Tue 10:47:05 PM 41.6603 -91.4447 83° East 492 566 39,000  Level Chicago Center
Tue 10:48:06 PM 41.6781 -91.2664 82° East 492 566 39,000  Level Chicago Center
Tue 10:49:08 PM 41.6992 -91.0497 82° East 495 570 39,000  Level Chicago Center
Tue 10:50:09 PM 41.7150 -90.8697 83° East 495 570 39,000  Level Chicago Center
Tue 10:51:11 PM 41.7319 -90.6908 83° East 493 567 39,000  Level Chicago Center
Tue 10:52:12 PM 41.7475 -90.5122 83° East 495 570 39,000  Level Chicago Center
Tue 10:53:13 PM 41.7669 -90.3297 82° East 495 570 39,000  Level Chicago Center
Tue 10:54:15 PM 41.8014 -90.1544 75° East 495 570 39,000  Level Chicago Center
Tue 10:55:16 PM 41.8428 -89.9406 75° East 500 575 39,000  Level Chicago Center
Tue 10:56:18 PM 41.8733 -89.7781 76° East 496 571 39,000  Level Chicago Center
Tue 10:57:19 PM 41.9067 -89.5978 76° East 500 575 39,000  Level Chicago Center
Tue 10:58:21 PM 41.9322 -89.4122 79° East 506 582 39,000  Level Chicago Center
Tue 10:59:22 PM 41.9581 -89.1889 81° East 505 581 39,000  Level Chicago Center
Tue 11:00:24 PM 41.9789 -89.0050 81° East 502 578 39,000  Level Chicago Center
Tue 11:01:25 PM 42.0008 -88.8181 81° East 507 583 39,000  Level Chicago Center
Tue 11:02:26 PM 42.0231 -88.6303 81° East 510 587 39,000  Level Chicago Center
Tue 11:03:28 PM 42.0439 -88.4414 81° East 510 587 39,000  Level Chicago Center
Tue 11:04:29 PM 42.0642 -88.2539 82° East 508 585 39,000  Level Chicago Center
Tue 11:05:31 PM 42.0853 -88.0669 81° East 506 582 39,000  Level Chicago Center
Tue 11:06:32 PM 42.1050 -87.8772 82° East 509 586 39,000  Level Chicago Center
Tue 11:07:33 PM 42.1297 -87.6519 82° East 509 586 39,000  Level Chicago Center
Tue 11:08:35 PM 42.1494 -87.4650 82° East 506 582 39,000  Level Chicago Center
Tue 11:09:36 PM 42.1681 -87.2764 82° East 507 583 39,000  Level Chicago Center
Tue 11:10:38 PM 42.1867 -87.0917 82° East 501 577 39,000  Level Chicago Center
Tue 11:11:39 PM 42.2039 -86.9058 83° East 502 578 39,000  Level Chicago Center
Tue 11:12:40 PM 42.2231 -86.7211 82° East 501 577 39,000  Level Chicago Center
Tue 11:13:42 PM 42.2431 -86.5272 82° East 503 579 39,000  Level Chicago Center
Tue 11:14:43 PM 42.2606 -86.3419 83° East 499 574 39,000  Level Chicago Center
Tue 11:15:45 PM 42.2781 -86.1550 83° East 501 577 39,000  Level Chicago Center
Tue 11:16:46 PM 42.2961 -85.9464 83° East 500 575 39,000  Level Chicago Center
Tue 11:17:47 PM 42.3133 -85.7606 83° East 503 579 39,000  Level Chicago Center
Tue 11:18:49 PM 42.3303 -85.5700 83° East 504 580 39,000  Level Chicago Center
Tue 11:19:50 PM 42.3467 -85.3889 83° East 502 578 39,000  Level Chicago Center
Tue 11:20:51 PM 42.3617 -85.2044 84° East 498 573 39,000  Level Chicago Center
Tue 11:21:52 PM 42.3778 -85.0200 83° East 499 574 39,000  Level Chicago Center
Tue 11:22:54 PM 42.3928 -84.8331 84° East 501 577 39,000  Level Chicago Center
Tue 11:23:55 PM 42.4114 -84.6078 84° East 505 581 39,000  Level Chicago Center
Tue 11:24:56 PM 42.4261 -84.4167 84° East 512 589 39,000  Level Chicago Center
Tue 11:25:57 PM 42.4397 -84.2267 84° East 510 587 39,000  Level Chicago Center
Tue 11:26:59 PM 42.4558 -84.0350 83° East 513 590 39,000  Level Chicago Center
Tue 11:28:00 PM 42.4681 -83.8431 85° East 517 595 39,000  Level Chicago Center
Tue 11:29:23 PM 42.4878 -83.5819 84° East 502 578 39,000  Level Cleveland Center
Tue 11:30:23 PM 42.4989 -83.3939 85° East 502 578 39,000  Level Cleveland Center
Tue 11:31:23 PM 42.5117 -83.2028 85° East 502 578 39,000  Level Cleveland Center
Tue 11:32:23 PM 42.5242 -83.0172 85° East 496 571 39,000  Level Cleveland Center
Tue 11:33:23 PM 42.5342 -82.8289 86° East 496 571 39,000  Level Cleveland Center
Tue 11:34:23 PM 42.5461 -82.6406 85° East 501 577 39,000  Level Cleveland Center
Tue 11:35:23 PM 42.5575 -82.4492 85° East 501 577 39,000  Level Cleveland Center
Tue 11:36:23 PM 42.5689 -82.2606 85° East 501 577 39,000  Level Cleveland Center
Tue 11:37:23 PM 42.5797 -82.0719 85° East 501 577 39,000  Level Cleveland Center
Tue 11:38:23 PM 42.5903 -81.8833 86° East 501 577 39,000  Level Cleveland Center
Tue 11:39:23 PM 42.6031 -81.6806 85° East 494 568 39,000  Level Cleveland Center
Tue 11:40:23 PM 42.6108 -81.4917 87° East 494 568 39,000  Level Cleveland Center
Tue 11:41:23 PM 42.6225 -81.3111 85° East 493 567 39,000  Level Cleveland Center
Tue 11:42:23 PM 42.6297 -81.1222 87° East 498 573 39,000  Level Cleveland Center
Tue 11:43:23 PM 42.6389 -80.9558 86° East 498 573 39,000  Level Cleveland Center
Tue 11:44:23 PM 42.6475 -80.7667 86° East 498 573 39,000  Level Cleveland Center
Tue 11:45:23 PM 42.6542 -80.5747 87° East 503 579 39,000  Level Cleveland Center
Tue 11:46:23 PM 42.6642 -80.3828 86° East 498 573 39,000  Level Cleveland Center
Tue 11:47:23 PM 42.6722 -80.1992 87° East 498 573 39,000  Level Cleveland Center
Tue 11:48:23 PM 42.6775 -79.9903 88° East 498 573 39,000  Level Cleveland Center
Tue 11:49:23 PM 42.6869 -79.8036 86° East 498 573 39,000  Level Cleveland Center
Tue 11:50:23 PM 42.6939 -79.6172 87° East 498 573 39,000  Level Cleveland Center
Tue 11:51:23 PM 42.7025 -79.4306 86° East 498 573 39,000  Level Cleveland Center
Tue 11:52:23 PM 42.7067 -79.2439 88° East 498 573 39,000  Level Cleveland Center
Tue 11:53:23 PM 42.7128 -79.0544 87° East 498 573 39,000  Level Cleveland Center
Tue 11:54:23 PM 42.7183 -78.8650 88° East 498 573 39,000  Level Cleveland Center
Tue 11:55:23 PM 42.7217 -78.6756 89° East 498 573 39,000  Level Cleveland Center
Tue 11:56:23 PM 42.7267 -78.4831 88° East 498 573 39,000  Level Cleveland Center
Tue 11:57:23 PM 42.7314 -78.2936 88° East 498 573 39,000  Level Cleveland Center
Tue 11:58:23 PM 42.7358 -78.1011 88° East 498 573 39,000  Level Cleveland Center
Tue 11:59:23 PM 42.7403 -77.9342 88° East 498 573 39,000  Level Cleveland Center
Wed 12:00:23 AM 42.7419 -77.7361 89° East 503 579 39,000  Level Cleveland Center
Wed 12:01:23 AM 42.7475 -77.5408 88° East 508 585 39,000  Level Cleveland Center
Wed 12:03:43 AM 42.7522 -77.0669 89° East 528 608 39,000  Level Boston Center
Wed 12:04:43 AM 42.7561 -76.8689 88° East 528 608 39,000  Level Boston Center
Wed 12:05:43 AM 42.7569 -76.6794 90° East 517 595 39,000  Level Boston Center
Wed 12:06:43 AM 42.7600 -76.4844 89° East 512 589 39,000 -350 Level Boston Center
Wed 12:07:43 AM 42.7603 -76.2922 90° East 512 589 38,300 -800 Descending Boston Center
Wed 12:08:43 AM 42.7617 -76.1225 89° East 512 589 37,400 -950 Descending Boston Center
Wed 12:09:43 AM 42.7617 -75.9244 90° East 512 589 36,400 -950 Descending Boston Center
Wed 12:10:43 AM 42.7614 -75.7292 90° East 517 595 35,500 -900 Descending Boston Center
Wed 12:11:43 AM 42.7628 -75.5286 89° East 517 595 34,600 -950 Descending Boston Center
Wed 12:12:43 AM 42.7619 -75.3247 90° East 523 602 33,600 -1,100 Descending Boston Center
Wed 12:14:00 AM 42.7532 -75.0973 93° East  Level FlightAware Approximate
Wed 12:14:43 AM 42.7589 -74.9172 93° East 518 596 31,300  Level Boston Center
Wed 12:15:43 AM 42.7569 -74.7222 91° East 511 588 30,500 -850 Descending Boston Center
Wed 12:16:43 AM 42.7544 -74.5269 91° East 511 588 29,600 -950 Descending Boston Center
Wed 12:17:43 AM 42.7536 -74.3289 90° East 518 596 28,600 -950 Descending Boston Center
Wed 12:18:43 AM 42.7525 -74.1281 90° East 523 602 27,700 -800 Descending Boston Center
Wed 12:19:43 AM 42.7492 -73.9331 91° East 518 596 27,000 -550 Descending Boston Center
Wed 12:20:43 AM 42.7514 -73.7408 89° East 512 589 26,600 -550 Descending Boston Center
Wed 12:21:43 AM 42.7575 -73.5739 87° East 507 583 25,900 -850 Descending Boston Center
Wed 12:22:43 AM 42.7633 -73.3931 87° East 489 563 24,900 -1,000 Descending Boston Center
Wed 12:23:43 AM 42.7708 -73.2178 87° East 476 548 23,900 -1,000 Descending Boston Center
Wed 12:24:55 AM 42.7764 -72.9889 88° East 476 548 22,700 -1,636 Descending Boston Center
Wed 12:25:55 AM 42.7811 -72.8136 88° East 468 539 20,300 -2,350 Descending Boston Center
Wed 12:26:55 AM 42.7858 -72.6522 88° East 443 510 18,000 -2,300 Descending Boston Center
Wed 12:27:55 AM 42.7900 -72.4939 88° East 422 486 15,700 -2,300 Descending Boston Center
Wed 12:28:55 AM 42.7942 -72.3467 88° East 401 461 13,400 -2,250 Descending Boston Center
Wed 12:29:55 AM 42.8003 -72.2053 87° East 394 453 11,200 -1,700 Descending Boston Center
Wed 12:30:55 AM 42.8019 -72.0694 89° East 361 415 10,000 -1,150 Descending Boston Center
Wed 12:31:55 AM 42.7975 -71.9619 93° East 322 371 8,900 -1,450 Descending Boston Center
Wed 12:32:55 AM 42.7886 -71.8403 96° East 296 341 7,100 -1,650 Descending Boston Center
Wed 12:33:55 AM 42.7817 -71.7442 96° East 283 326 5,600 -1,350 Descending Boston Center
Wed 12:34:55 AM 42.7728 -71.6369 96° East 272 313 4,400 -900 Descending Boston Center
Wed 12:35:55 AM 42.7764 -71.5633 86° East 227 261 3,800 -550 Descending Boston Center
Wed 12:36:55 AM 42.8028 -71.4922 63° Northeast 188 216 3,300 -750 Descending Boston Center
Wed 12:37:55 AM 42.8086 -71.4411 81° East 163 188 2,300 -650 Descending Boston Center
Wed 12:38:55 AM 42.8247 -71.3814 70° East 156 180 2,000 -300 Descending Boston Center
Wed 12:39:55 AM 42.8561 -71.3922 346° North 104 120 1,700 -527 Descending Boston Center
Wed 12:40:26 AM 42.8833 -71.4000 348° North 134 154 1,200 -791 Descending KA90
Wed 12:41:26 AM 42.9167 -71.4167 340° North 141 162 500 5,110 Descending KA90
Wed 12:43:55 AM 42.9986 -71.4664 336° Northwest 133 153 19,000 7,450 Climbing Boston Center

Login

Don't have an account? Register now (free) for customized features, flight alerts, and more!